createdAt,value
2022-12-09T00:00:35.951Z,6.30
2022-12-09T00:03:03.822Z,6.30
2022-12-09T00:05:31.976Z,6.20
2022-12-09T00:07:59.800Z,6.30
2022-12-09T00:10:27.670Z,6.40
2022-12-09T00:12:56.380Z,6.60
2022-12-09T00:15:24.417Z,6.60
2022-12-09T00:17:52.344Z,6.60
2022-12-09T00:20:20.027Z,6.60
2022-12-09T00:22:47.821Z,6.60
2022-12-09T00:25:15.667Z,6.60
2022-12-09T00:27:43.297Z,6.70
2022-12-09T00:30:11.655Z,6.70
2022-12-09T00:32:39.948Z,6.60
2022-12-09T00:35:07.763Z,6.70
2022-12-09T00:37:35.534Z,6.70
2022-12-09T00:40:03.606Z,6.70
2022-12-09T00:42:31.831Z,6.60
2022-12-09T00:44:59.764Z,6.60
2022-12-09T00:47:27.644Z,6.50
2022-12-09T00:49:55.463Z,6.50
2022-12-09T00:52:23.382Z,6.50
2022-12-09T00:54:51.529Z,6.50
2022-12-09T00:57:19.400Z,6.60
2022-12-09T00:59:47.612Z,6.50
2022-12-09T01:02:15.720Z,6.40
2022-12-09T01:04:43.949Z,6.50
2022-12-09T01:07:11.777Z,6.50
2022-12-09T01:09:40.767Z,6.40
2022-12-09T01:12:08.841Z,6.40
2022-12-09T01:14:36.634Z,6.40
2022-12-09T01:17:04.755Z,6.50
2022-12-09T01:19:32.793Z,6.40
2022-12-09T01:22:00.632Z,6.50
2022-12-09T01:24:28.639Z,6.60
2022-12-09T01:26:56.384Z,6.40
2022-12-09T01:29:24.257Z,6.50
2022-12-09T01:31:52.243Z,6.50
2022-12-09T01:34:19.813Z,6.40
2022-12-09T01:36:50.604Z,6.30
2022-12-09T01:39:18.362Z,6.20
2022-12-09T01:41:46.430Z,6.20
2022-12-09T01:44:16.222Z,6.30
2022-12-09T01:46:44.451Z,6.20
2022-12-09T01:49:13.746Z,6.20
2022-12-09T01:51:42.987Z,6.20
2022-12-09T01:54:14.695Z,6.20
2022-12-09T01:56:42.417Z,6.20
2022-12-09T01:59:13.900Z,6.20
2022-12-09T02:01:43.227Z,6.30
2022-12-09T02:04:11.027Z,6.30
2022-12-09T02:06:39.243Z,6.30
2022-12-09T02:09:10.587Z,6.30
2022-12-09T02:12:12.361Z,6.30
2022-12-09T02:15:00.158Z,6.30
2022-12-09T02:17:41.876Z,6.30
2022-12-09T02:20:37.319Z,6.10
2022-12-09T02:23:11.530Z,6.10
2022-12-09T02:25:45.274Z,6.10
2022-12-09T02:28:28.404Z,6.10
2022-12-09T02:30:56.126Z,6.10
2022-12-09T02:33:40.821Z,6.10
2022-12-09T02:36:13.223Z,6.00
2022-12-09T02:38:42.514Z,6.20
2022-12-09T02:41:16.639Z,6.20
2022-12-09T02:43:57.560Z,6.20
2022-12-09T02:46:31.091Z,6.20
2022-12-09T02:48:59.729Z,6.20
2022-12-09T02:51:29.971Z,6.20
2022-12-09T02:53:59.724Z,6.30
2022-12-09T02:56:28.225Z,6.30
2022-12-09T02:58:55.962Z,6.30
2022-12-09T03:01:26.603Z,6.20
2022-12-09T03:03:55.012Z,6.20
2022-12-09T03:06:25.931Z,6.10
2022-12-09T03:08:57.518Z,6.10
2022-12-09T03:11:25.932Z,6.10
2022-12-09T03:14:06.863Z,6.10
2022-12-09T03:16:44.739Z,6.10
2022-12-09T03:19:27.795Z,6.10
2022-12-09T03:21:57.944Z,6.10
2022-12-09T03:24:28.946Z,6.10
2022-12-09T03:26:58.065Z,6.20
2022-12-09T03:29:26.899Z,6.10
2022-12-09T03:31:55.643Z,6.10
2022-12-09T03:34:25.183Z,6.20
2022-12-09T03:36:53.229Z,6.20
2022-12-09T03:39:23.550Z,6.30
2022-12-09T03:41:53.486Z,6.50
2022-12-09T03:44:24.465Z,6.50
2022-12-09T03:46:52.241Z,6.40
2022-12-09T03:49:19.819Z,6.30
2022-12-09T03:51:51.673Z,6.20
2022-12-09T03:54:49.055Z,6.10
2022-12-09T03:57:19.289Z,6.20
2022-12-09T03:59:55.957Z,6.10
2022-12-09T04:02:23.758Z,6.10
2022-12-09T04:04:51.673Z,6.10
2022-12-09T04:07:19.506Z,6.20
2022-12-09T04:09:47.116Z,6.30
2022-12-09T04:12:14.697Z,6.30
2022-12-09T04:14:42.590Z,6.30
2022-12-09T04:17:11.633Z,6.40
2022-12-09T04:19:39.539Z,6.50
2022-12-09T04:22:07.218Z,6.50
2022-12-09T04:24:34.839Z,6.30
2022-12-09T04:27:02.323Z,6.20
2022-12-09T04:29:30.139Z,6.10
2022-12-09T04:31:58.055Z,6.10
2022-12-09T04:34:25.888Z,6.20
2022-12-09T04:36:53.551Z,6.40
2022-12-09T04:39:21.206Z,6.30
2022-12-09T04:41:48.994Z,6.50
2022-12-09T04:44:16.898Z,6.50
2022-12-09T04:46:44.624Z,6.60
2022-12-09T04:49:12.572Z,6.40
2022-12-09T04:51:40.860Z,6.40
2022-12-09T04:54:12.363Z,6.50
2022-12-09T04:56:39.964Z,6.50
2022-12-09T04:59:07.617Z,6.50
2022-12-09T05:01:35.669Z,6.40
2022-12-09T05:04:04.423Z,6.40
2022-12-09T05:06:32.852Z,6.20
2022-12-09T05:09:00.640Z,6.30
2022-12-09T05:11:28.898Z,6.40
2022-12-09T05:13:56.713Z,6.30
2022-12-09T05:16:24.346Z,6.40
2022-12-09T05:18:52.424Z,6.50
2022-12-09T05:21:21.059Z,6.50
2022-12-09T05:23:48.827Z,6.40
2022-12-09T05:26:17.900Z,6.30
2022-12-09T05:28:46.263Z,6.20
2022-12-09T05:31:15.628Z,6.30
2022-12-09T05:33:44.145Z,6.30
2022-12-09T05:36:12.595Z,6.30
2022-12-09T05:38:40.451Z,6.20
2022-12-09T05:41:08.431Z,6.30
2022-12-09T05:43:37.607Z,6.40
2022-12-09T05:46:06.102Z,6.30
2022-12-09T05:48:34.677Z,6.10
2022-12-09T05:51:07.267Z,6.20
2022-12-09T05:53:35.335Z,6.10
2022-12-09T05:56:03.407Z,6.10
2022-12-09T05:58:31.515Z,6.20
2022-12-09T06:01:08.869Z,6.40
2022-12-09T06:03:37.634Z,6.50
2022-12-09T06:06:12.579Z,6.30
2022-12-09T06:08:41.855Z,6.20
2022-12-09T06:11:13.892Z,6.20
2022-12-09T06:13:42.248Z,6.20
2022-12-09T06:16:09.949Z,6.20
2022-12-09T06:18:37.897Z,6.20
2022-12-09T06:21:07.456Z,6.10
2022-12-09T06:23:36.193Z,6.20
2022-12-09T06:26:04.325Z,6.10
2022-12-09T06:28:32.616Z,6.20
2022-12-09T06:31:00.910Z,6.20
2022-12-09T06:36:16.231Z,6.30
2022-12-09T06:38:43.960Z,6.30
2022-12-09T06:41:12.992Z,6.30
2022-12-09T06:43:41.423Z,6.40
2022-12-09T06:46:13.802Z,6.30
2022-12-09T06:48:41.799Z,6.30
2022-12-09T06:51:09.687Z,6.30
2022-12-09T06:53:37.483Z,6.30
2022-12-09T06:56:11.484Z,6.30
2022-12-09T06:58:40.714Z,6.30
2022-12-09T07:01:13.805Z,6.30
2022-12-09T07:03:45.831Z,6.30
2022-12-09T07:06:26.048Z,6.30
2022-12-09T07:08:54.283Z,6.30
2022-12-09T07:11:22.716Z,6.20
2022-12-09T07:13:50.924Z,6.40
2022-12-09T07:16:18.774Z,6.50
2022-12-09T07:18:46.500Z,6.50
2022-12-09T07:21:15.740Z,6.50
2022-12-09T07:23:44.164Z,6.40
2022-12-09T07:26:11.928Z,6.40
2022-12-09T07:28:42.667Z,6.30
2022-12-09T07:31:27.509Z,6.30
2022-12-09T07:33:56.447Z,6.30
2022-12-09T07:36:25.243Z,6.30
2022-12-09T07:39:00.914Z,6.40
2022-12-09T07:41:28.987Z,6.30
2022-12-09T07:43:57.328Z,6.30
2022-12-09T07:46:28.072Z,6.30
2022-12-09T07:48:57.375Z,6.40
2022-12-09T07:51:26.034Z,6.40
2022-12-09T07:53:54.037Z,6.40
2022-12-09T07:56:22.620Z,6.40
2022-12-09T07:58:53.679Z,6.40
2022-12-09T08:01:23.645Z,6.40
2022-12-09T08:03:51.649Z,6.50
2022-12-09T08:06:20.719Z,6.50
2022-12-09T08:08:49.274Z,6.50
2022-12-09T08:11:19.806Z,6.50
2022-12-09T08:13:47.531Z,6.50
2022-12-09T08:16:16.143Z,6.40
2022-12-09T08:18:44.784Z,6.30
2022-12-09T08:21:14.691Z,6.50
2022-12-09T08:23:42.692Z,6.60
2022-12-09T08:26:12.175Z,6.50
2022-12-09T08:28:40.345Z,6.40
2022-12-09T08:31:15.670Z,6.40
2022-12-09T08:33:44.069Z,6.40
2022-12-09T08:36:13.179Z,6.50
2022-12-09T08:38:40.876Z,6.40
2022-12-09T08:41:09.883Z,6.50
2022-12-09T08:43:38.121Z,6.40
2022-12-09T08:46:06.225Z,6.40
2022-12-09T08:48:36.231Z,6.30
2022-12-09T08:51:04.408Z,6.50
2022-12-09T08:53:32.400Z,6.50
2022-12-09T08:56:00.097Z,6.50
2022-12-09T08:58:28.086Z,6.50
2022-12-09T09:00:56.086Z,6.60
2022-12-09T09:03:23.794Z,6.60
2022-12-09T09:05:51.614Z,6.60
2022-12-09T09:08:19.841Z,6.60
2022-12-09T09:10:47.641Z,6.60
2022-12-09T09:13:15.716Z,6.70
2022-12-09T09:15:43.693Z,6.60
2022-12-09T09:18:11.850Z,6.70
2022-12-09T09:20:43.059Z,6.70
2022-12-09T09:23:11.313Z,6.60
2022-12-09T09:25:42.740Z,6.60
2022-12-09T09:28:11.213Z,6.60
2022-12-09T09:30:39.148Z,6.60
2022-12-09T09:33:08.528Z,6.60
2022-12-09T09:35:36.615Z,6.60
2022-12-09T09:38:04.418Z,6.60
2022-12-09T09:40:33.234Z,6.60
2022-12-09T09:43:02.178Z,6.60
2022-12-09T09:45:30.745Z,6.50
2022-12-09T09:48:02.972Z,6.60
2022-12-09T09:50:44.576Z,6.50
2022-12-09T09:53:16.183Z,6.50
2022-12-09T09:55:47.433Z,6.50
2022-12-09T09:58:20.529Z,6.50
2022-12-09T10:00:52.513Z,6.40
2022-12-09T10:03:26.814Z,6.40
2022-12-09T10:05:56.345Z,6.50
2022-12-09T10:08:24.731Z,6.50
2022-12-09T10:11:10.993Z,6.50
2022-12-09T10:13:57.690Z,6.50
2022-12-09T10:16:32.021Z,6.50
2022-12-09T10:19:18.811Z,6.50
2022-12-09T10:21:48.193Z,6.50
2022-12-09T10:24:21.360Z,6.60
2022-12-09T10:27:09.695Z,6.60
2022-12-09T10:29:43.989Z,6.70
2022-12-09T10:32:14.884Z,6.80
2022-12-09T10:34:42.779Z,6.70
2022-12-09T10:37:19.771Z,6.60
2022-12-09T10:39:47.969Z,6.50
2022-12-09T10:42:35.404Z,6.50
2022-12-09T10:45:07.758Z,6.50
2022-12-09T10:47:35.778Z,6.40
2022-12-09T10:50:04.881Z,6.50
2022-12-09T10:52:41.825Z,6.50
2022-12-09T10:55:21.525Z,6.60
2022-12-09T10:57:49.255Z,6.70
2022-12-09T11:00:21.669Z,6.80
2022-12-09T11:02:51.493Z,6.90
2022-12-09T11:05:27.744Z,6.90
2022-12-09T11:07:57.503Z,6.90
2022-12-09T11:10:27.906Z,6.90
2022-12-09T11:13:03.808Z,6.90
2022-12-09T11:15:35.495Z,6.90
2022-12-09T11:18:08.128Z,6.80
2022-12-09T11:20:36.615Z,6.70
2022-12-09T11:23:06.452Z,6.60
2022-12-09T11:25:36.087Z,6.60
2022-12-09T11:28:06.084Z,6.60
2022-12-09T11:30:57.828Z,6.60
2022-12-09T11:33:32.483Z,6.60
2022-12-09T11:38:39.425Z,6.90
2022-12-09T11:41:10.047Z,7.10
2022-12-09T11:43:49.662Z,7.10
2022-12-09T11:46:20.246Z,7.20
2022-12-09T11:48:50.850Z,7.20
2022-12-09T11:51:22.719Z,7.00
2022-12-09T11:53:51.844Z,7.00
2022-12-09T11:56:26.527Z,7.20
2022-12-09T11:58:57.956Z,7.10
2022-12-09T12:01:43.880Z,7.10
2022-12-09T12:04:12.639Z,7.10
2022-12-09T12:06:46.358Z,7.20
2022-12-09T12:09:19.913Z,7.10
2022-12-09T12:11:57.982Z,7.30
2022-12-09T12:14:27.830Z,7.30
2022-12-09T12:16:59.082Z,7.30
2022-12-09T12:19:38.264Z,7.20
2022-12-09T12:22:23.111Z,7.40
2022-12-09T12:25:01.107Z,7.50
2022-12-09T12:27:28.592Z,7.60
2022-12-09T12:29:56.096Z,7.40
2022-12-09T12:32:41.620Z,7.40
2022-12-09T12:35:37.883Z,7.20
2022-12-09T12:38:24.085Z,7.10
2022-12-09T12:40:55.500Z,7.10
2022-12-09T12:43:44.796Z,6.90
2022-12-09T12:46:28.296Z,7.00
2022-12-09T12:48:55.833Z,7.00
2022-12-09T12:51:32.438Z,7.00
2022-12-09T12:54:23.136Z,7.10
2022-12-09T12:56:50.695Z,7.10
2022-12-09T12:59:26.632Z,7.10
2022-12-09T13:01:57.803Z,7.20
2022-12-09T13:04:38.715Z,7.20
2022-12-09T13:07:06.914Z,7.30
2022-12-09T13:09:47.422Z,7.20
2022-12-09T13:12:17.165Z,7.20
2022-12-09T13:14:52.192Z,7.10
2022-12-09T13:17:22.259Z,7.10
2022-12-09T13:19:52.443Z,7.10
2022-12-09T13:22:21.459Z,7.00
2022-12-09T13:24:55.431Z,7.00
2022-12-09T13:27:27.459Z,7.00
2022-12-09T13:29:58.220Z,7.00
2022-12-09T13:32:25.752Z,6.90
2022-12-09T13:34:56.833Z,7.00
2022-12-09T13:37:44.578Z,7.10
2022-12-09T13:40:21.388Z,6.90
2022-12-09T13:43:01.517Z,6.90
2022-12-09T13:45:44.480Z,6.80
2022-12-09T13:48:16.885Z,6.80
2022-12-09T13:50:57.608Z,6.70
2022-12-09T13:53:35.203Z,6.70
2022-12-09T13:56:05.452Z,6.70
2022-12-09T13:58:46.594Z,6.70
2022-12-09T14:01:23.186Z,6.70
2022-12-09T14:03:53.859Z,6.90
2022-12-09T14:06:41.689Z,6.80
2022-12-09T14:09:32.697Z,6.80
2022-12-09T14:12:02.645Z,7.00
2022-12-09T14:14:30.092Z,7.10
2022-12-09T14:17:16.234Z,7.00
2022-12-09T14:19:56.584Z,6.80
2022-12-09T14:22:24.127Z,6.70
2022-12-09T14:24:52.575Z,6.80
2022-12-09T14:27:24.305Z,6.90
2022-12-09T14:30:02.726Z,6.90
2022-12-09T14:32:30.299Z,6.80
2022-12-09T14:35:03.925Z,6.80
2022-12-09T14:37:41.735Z,6.70
2022-12-09T14:40:15.467Z,6.70
2022-12-09T14:42:46.580Z,6.70
2022-12-09T14:45:17.026Z,6.80
2022-12-09T14:47:46.001Z,6.80
2022-12-09T14:50:14.829Z,6.80
2022-12-09T14:52:53.254Z,6.90
2022-12-09T14:55:23.655Z,6.80
2022-12-09T14:57:52.610Z,7.00
2022-12-09T15:00:35.671Z,7.00
2022-12-09T15:05:56.697Z,7.00
2022-12-09T15:08:30.422Z,7.00
2022-12-09T15:10:58.496Z,7.10
2022-12-09T15:13:28.984Z,7.10
2022-12-09T15:15:57.082Z,7.00
2022-12-09T15:18:25.602Z,7.00
2022-12-09T15:20:54.820Z,6.90
2022-12-09T15:23:28.463Z,6.80
2022-12-09T15:25:57.919Z,6.80
2022-12-09T15:28:26.992Z,6.90
2022-12-09T15:31:05.335Z,6.90
2022-12-09T15:33:40.413Z,6.90
2022-12-09T15:36:10.311Z,6.90
2022-12-09T15:38:41.530Z,6.90
2022-12-09T15:41:28.057Z,6.80
2022-12-09T15:43:58.180Z,6.80
2022-12-09T15:46:26.742Z,6.80
2022-12-09T15:48:55.577Z,6.90
2022-12-09T15:51:23.601Z,6.90
2022-12-09T15:53:59.255Z,6.90
2022-12-09T15:56:35.874Z,6.80
2022-12-09T15:59:12.116Z,6.80
2022-12-09T16:01:39.733Z,6.70
2022-12-09T16:04:09.069Z,6.70
2022-12-09T16:06:37.209Z,6.80
2022-12-09T16:09:12.403Z,6.80
2022-12-09T16:11:41.904Z,6.80
2022-12-09T16:14:09.890Z,6.70
2022-12-09T16:16:48.076Z,6.70
2022-12-09T16:19:31.062Z,6.70
2022-12-09T16:22:02.506Z,6.70
2022-12-09T16:24:50.894Z,6.70
2022-12-09T16:27:20.607Z,6.70
2022-12-09T16:29:53.636Z,6.70
2022-12-09T16:32:26.571Z,6.80
2022-12-09T16:34:58.793Z,6.90
2022-12-09T16:37:37.386Z,7.10
2022-12-09T16:40:23.736Z,7.00
2022-12-09T16:42:55.752Z,7.00
2022-12-09T16:45:23.431Z,7.10
2022-12-09T16:47:54.827Z,7.10
2022-12-09T16:50:23.315Z,7.20
2022-12-09T16:52:50.755Z,7.20
2022-12-09T16:55:28.341Z,7.20
2022-12-09T16:57:56.769Z,7.20
2022-12-09T17:00:24.118Z,7.00
2022-12-09T17:02:54.001Z,6.90
2022-12-09T17:05:21.504Z,6.80
2022-12-09T17:07:49.049Z,6.70
2022-12-09T17:10:16.988Z,6.80
2022-12-09T17:12:45.257Z,6.90
2022-12-09T17:15:17.160Z,6.90
2022-12-09T17:17:48.942Z,6.80
2022-12-09T17:20:17.001Z,6.80
2022-12-09T17:22:44.459Z,7.00
2022-12-09T17:25:12.089Z,7.10
2022-12-09T17:27:39.614Z,7.10
2022-12-09T17:30:07.401Z,7.10
2022-12-09T17:32:34.838Z,7.10
2022-12-09T17:35:03.544Z,7.10
2022-12-09T17:37:33.905Z,7.10
2022-12-09T17:40:03.661Z,7.10
2022-12-09T17:42:31.492Z,7.00
2022-12-09T17:44:59.007Z,7.10
2022-12-09T17:47:27.349Z,7.10
2022-12-09T17:49:54.854Z,7.10
2022-12-09T17:52:22.448Z,7.20
2022-12-09T17:54:50.001Z,7.20
2022-12-09T17:57:17.696Z,7.20
2022-12-09T17:59:45.827Z,7.20
2022-12-09T18:02:13.523Z,7.20
2022-12-09T18:04:40.996Z,7.10
2022-12-09T18:07:08.528Z,7.20
2022-12-09T18:09:35.991Z,7.20
2022-12-09T18:12:03.519Z,7.20
2022-12-09T18:14:31.183Z,7.20
2022-12-09T18:16:58.713Z,7.20
2022-12-09T18:19:26.462Z,7.10
2022-12-09T18:21:54.301Z,7.20
2022-12-09T18:24:22.327Z,7.20
2022-12-09T18:26:49.769Z,7.20
2022-12-09T18:29:17.434Z,7.20
2022-12-09T18:31:45.898Z,7.20
2022-12-09T18:34:13.824Z,7.10
2022-12-09T18:36:42.044Z,7.00
2022-12-09T18:39:09.614Z,7.10
2022-12-09T18:41:37.277Z,7.10
2022-12-09T18:44:06.136Z,7.00
2022-12-09T18:46:35.106Z,7.00
2022-12-09T18:49:07.611Z,7.10
2022-12-09T18:51:35.300Z,7.20
2022-12-09T18:54:03.824Z,7.20
2022-12-09T18:56:32.133Z,7.20
2022-12-09T18:59:08.658Z,7.00
2022-12-09T19:01:41.416Z,7.00
2022-12-09T19:04:12.872Z,7.00
2022-12-09T19:06:41.169Z,6.90
2022-12-09T19:09:10.037Z,6.90
2022-12-09T19:11:38.654Z,6.90
2022-12-09T19:14:06.570Z,6.80
2022-12-09T19:16:34.094Z,6.90
2022-12-09T19:19:08.764Z,6.90
2022-12-09T19:21:37.369Z,6.90
2022-12-09T19:24:05.145Z,6.90
2022-12-09T19:26:33.694Z,6.90
2022-12-09T19:29:02.792Z,6.80
2022-12-09T19:31:44.442Z,6.70
2022-12-09T19:34:11.908Z,6.90
2022-12-09T19:36:39.709Z,6.90
2022-12-09T19:39:08.428Z,6.80
2022-12-09T19:41:36.838Z,6.70
2022-12-09T19:44:05.007Z,6.70
2022-12-09T19:46:33.339Z,6.70
2022-12-09T19:49:01.095Z,6.70
2022-12-09T19:51:28.508Z,6.70
2022-12-09T19:53:57.020Z,6.70
2022-12-09T19:56:24.769Z,6.70
2022-12-09T19:58:52.524Z,6.60
2022-12-09T20:01:21.364Z,6.70
2022-12-09T20:03:52.226Z,6.70
2022-12-09T20:06:20.672Z,6.70
2022-12-09T20:08:48.480Z,6.80
2022-12-09T20:11:17.861Z,6.80
2022-12-09T20:13:45.822Z,6.90
2022-12-09T20:16:14.901Z,6.90
2022-12-09T20:18:42.584Z,6.90
2022-12-09T20:21:10.915Z,6.80
2022-12-09T20:23:39.254Z,6.70
2022-12-09T20:26:10.476Z,6.80
2022-12-09T20:28:38.559Z,6.70
2022-12-09T20:31:08.918Z,6.70
2022-12-09T20:33:36.974Z,6.70
2022-12-09T20:36:05.524Z,6.70
2022-12-09T20:38:34.975Z,6.70
2022-12-09T20:41:03.357Z,6.70
2022-12-09T20:43:31.284Z,6.80
2022-12-09T20:45:58.666Z,6.80
2022-12-09T20:48:26.147Z,6.70
2022-12-09T20:50:53.714Z,6.70
2022-12-09T20:53:21.192Z,6.70
2022-12-09T20:55:55.831Z,6.70
2022-12-09T20:58:23.440Z,6.80
2022-12-09T21:00:50.980Z,6.80
2022-12-09T21:03:18.664Z,6.80
2022-12-09T21:05:46.379Z,6.80
2022-12-09T21:08:13.881Z,6.80
2022-12-09T21:10:41.395Z,6.70
2022-12-09T21:13:08.950Z,6.70
2022-12-09T21:15:36.419Z,6.70
2022-12-09T21:18:03.993Z,6.60
2022-12-09T21:20:31.590Z,6.60
2022-12-09T21:23:25.066Z,6.60
2022-12-09T21:25:46.636Z,6.60
2022-12-09T21:28:15.601Z,6.60
2022-12-09T21:30:43.065Z,6.70
2022-12-09T21:33:10.792Z,6.70
2022-12-09T21:35:42.383Z,6.60
2022-12-09T21:38:10.945Z,6.60
2022-12-09T21:40:38.463Z,6.80
2022-12-09T21:43:06.256Z,6.60
2022-12-09T21:45:34.259Z,6.60
2022-12-09T21:48:01.841Z,6.60
2022-12-09T21:50:30.438Z,6.50
2022-12-09T21:52:58.086Z,6.50
2022-12-09T21:55:25.679Z,6.60
2022-12-09T21:57:53.230Z,6.60
2022-12-09T22:00:20.712Z,6.70
2022-12-09T22:02:51.378Z,6.70
2022-12-09T22:05:20.861Z,6.70
2022-12-09T22:07:50.063Z,6.70
2022-12-09T22:10:18.587Z,6.70
2022-12-09T22:12:46.115Z,6.60
2022-12-09T22:15:13.644Z,6.50
2022-12-09T22:17:41.225Z,6.60
2022-12-09T22:22:57.012Z,6.60
2022-12-09T22:25:24.626Z,6.60
2022-12-09T22:27:52.066Z,6.60
2022-12-09T22:30:19.570Z,6.70
2022-12-09T22:32:50.740Z,6.60
2022-12-09T22:35:18.554Z,6.60
2022-12-09T22:37:46.057Z,6.50
2022-12-09T22:40:13.634Z,6.50
2022-12-09T22:42:41.174Z,6.50
2022-12-09T22:45:08.819Z,6.70
2022-12-09T22:47:36.357Z,6.60
2022-12-09T22:50:03.828Z,6.50
2022-12-09T22:52:31.342Z,6.60
2022-12-09T22:54:58.902Z,6.70
2022-12-09T22:57:26.367Z,6.70
2022-12-09T22:59:53.935Z,6.70
2022-12-09T23:02:21.627Z,6.60
2022-12-09T23:04:49.213Z,6.50
2022-12-09T23:07:16.719Z,6.40
2022-12-09T23:09:44.376Z,6.50
2022-12-09T23:12:12.228Z,6.60
2022-12-09T23:14:39.701Z,6.60
2022-12-09T23:17:07.817Z,6.50
2022-12-09T23:19:35.355Z,6.40
2022-12-09T23:22:03.586Z,6.50
2022-12-09T23:24:31.069Z,6.60
2022-12-09T23:26:58.542Z,6.60
2022-12-09T23:29:26.168Z,6.70
2022-12-09T23:31:53.691Z,6.70
2022-12-09T23:34:21.255Z,6.70
2022-12-09T23:36:48.770Z,6.70
2022-12-09T23:39:17.223Z,6.70
2022-12-09T23:41:45.302Z,6.50
2022-12-09T23:44:14.027Z,6.60
2022-12-09T23:46:41.578Z,6.60
2022-12-09T23:49:09.220Z,6.40
2022-12-09T23:51:38.532Z,6.30
2022-12-09T23:54:07.074Z,6.30
2022-12-09T23:56:36.068Z,6.30
2022-12-09T23:59:04.530Z,6.30
